»·PEaware :: N78JW KSAN-KSBA

N78JW :: KSAN-KSBA

FLIGHT INFORMATION

Flight Status: Arrived
Operator: Privately registered:
United States
More flights under this callsign
Pilot: Jon W. (9193)
Aircraft: PIPER PA-24 COMMANCHE
(PA24)
More flights by this aircraft type
Origin: KSAN San Diego Intl-Lindbergh
United States
Destination: KSBA Santa Barbara Mun
United States
More flights between these airports :: More routes between these airports
Route: +
File this flight plan on PilotEdge
Remarks:
Altitude:
(Current/Filed)
8,500ft
Speed:
(Current/Filed)
0kts
Departed: 05-Oct-17 08:55 PM
Arrived: 05-Oct-17 10:13 PM
Distance/Time
Traveled:
167nm/1:18
Distance/Time
To Go:
Arrived

Flight Plot

Page will automatically refresh every two minutes.

Flight plan parsing failed; only flown route is shown


Map Options




Map Legend


Flown Route
Filed Route
Departure Airport
Arrival Airport
Navaid (VOR, NDB)
Fix

Horizontal Profiles

Position Reports

Time Latitude Longitude Heading Altitude Ground
Speed
05-Oct-17 20:51 32.733164 -117.180997 15 18ft 0kts
05-Oct-17 20:52 32.733169 -117.180995 15 18ft 0kts
05-Oct-17 20:53 32.733189 -117.180989 15 18ft 0kts
05-Oct-17 20:54 32.733123 -117.181149 189 18ft 6kts
05-Oct-17 20:55 32.731899 -117.177705 105 18ft 16kts
05-Oct-17 20:56 32.730976 -117.175337 151 18ft 0kts
05-Oct-17 20:57 32.730971 -117.175333 151 18ft 0kts
05-Oct-17 20:58 32.730660 -117.175291 188 18ft 7kts
05-Oct-17 20:59 32.733664 -117.190369 285 230ft 109kts
05-Oct-17 21:00 32.751469 -117.218830 324 1245ft 116kts
05-Oct-17 21:01 32.778009 -117.242456 324 1908ft 127kts
05-Oct-17 21:02 32.808791 -117.270400 324 1938ft 146kts
05-Oct-17 21:03 32.841657 -117.300019 324 2125ft 139kts
05-Oct-17 21:04 32.870149 -117.324398 324 2982ft 119kts
05-Oct-17 21:05 32.897809 -117.347609 318 3751ft 123kts
05-Oct-17 21:06 32.921259 -117.375989 312 4572ft 119kts
05-Oct-17 21:07 32.945005 -117.402527 319 5474ft 114kts
05-Oct-17 21:08 32.969728 -117.427096 317 6229ft 117kts
05-Oct-17 21:09 32.994603 -117.451996 317 6929ft 118kts
05-Oct-17 21:10 33.019468 -117.477194 315 7589ft 117kts
05-Oct-17 21:11 33.044461 -117.502788 316 8162ft 118kts
05-Oct-17 21:12 33.065980 -117.524230 315 8449ft 130kts
05-Oct-17 21:13 33.099707 -117.558962 316 8464ft 141kts
05-Oct-17 21:14 33.125130 -117.584367 316 8464ft 144kts
05-Oct-17 21:15 33.155603 -117.615740 315 8466ft 145kts
05-Oct-17 21:16 33.186425 -117.647191 316 8466ft 145kts
05-Oct-17 21:17 33.217260 -117.678463 315 8467ft 145kts
05-Oct-17 21:18 33.248000 -117.710184 316 8468ft 146kts
05-Oct-17 21:19 33.279454 -117.741558 326 8461ft 149kts
05-Oct-17 21:20 33.320473 -117.751241 344 8467ft 151kts
05-Oct-17 21:21 33.361907 -117.759384 350 8468ft 151kts
05-Oct-17 21:22 33.404086 -117.764243 352 8466ft 152kts
05-Oct-17 21:23 33.446168 -117.769178 351 8467ft 152kts
05-Oct-17 21:24 33.488354 -117.774401 351 8466ft 152kts
05-Oct-17 21:25 33.530504 -117.779375 351 8466ft 152kts
05-Oct-17 21:26 33.565675 -117.802329 316 8469ft 146kts
05-Oct-17 21:27 33.598284 -117.831990 314 8466ft 147kts
05-Oct-17 21:28 33.625734 -117.868027 309 8466ft 146kts
05-Oct-17 21:29 33.654965 -117.902736 313 8461ft 149kts
05-Oct-17 21:30 33.683837 -117.938842 311 8464ft 150kts
05-Oct-17 21:31 33.714724 -117.973010 314 8465ft 152kts
05-Oct-17 21:32 33.744208 -118.009799 312 8474ft 152kts
05-Oct-17 21:33 33.775357 -118.044956 315 8464ft 154kts
05-Oct-17 21:34 33.803583 -118.084093 319 8462ft 154kts
05-Oct-17 21:35 33.834815 -118.119511 319 8464ft 155kts
05-Oct-17 21:36 33.870990 -118.146280 332 8464ft 151kts
05-Oct-17 21:37 33.906075 -118.172209 316 8464ft 145kts
05-Oct-17 21:38 33.934527 -118.206337 316 8465ft 143kts
05-Oct-17 21:39 33.964701 -118.237642 319 8465ft 143kts
05-Oct-17 21:40 33.995113 -118.268938 323 8466ft 143kts
05-Oct-17 21:41 34.028161 -118.295607 325 8466ft 142kts
05-Oct-17 21:42 34.058252 -118.327016 316 8467ft 142kts
05-Oct-17 21:43 34.088603 -118.357679 322 8466ft 142kts
05-Oct-17 21:44 34.119168 -118.389430 318 8472ft 147kts
05-Oct-17 21:45 34.151587 -118.419830 326 8471ft 147kts
05-Oct-17 21:46 34.182856 -118.451345 319 8468ft 146kts
05-Oct-17 21:47 34.214168 -118.482349 322 8468ft 145kts
05-Oct-17 21:48 34.226212 -118.527806 275 8471ft 151kts
05-Oct-17 21:49 34.234534 -118.577626 287 8469ft 152kts
05-Oct-17 21:50 34.245195 -118.627516 279 8467ft 154kts
05-Oct-17 21:51 34.250831 -118.678909 280 8472ft 156kts
05-Oct-17 21:52 34.260055 -118.731201 282 8465ft 159kts
05-Oct-17 21:53 34.267158 -118.783719 281 8469ft 157kts
05-Oct-17 21:54 34.276436 -118.835163 284 8467ft 156kts
05-Oct-17 21:55 34.284184 -118.887637 280 8477ft 159kts
05-Oct-17 21:56 34.292318 -118.941337 284 8252ft 169kts
05-Oct-17 21:57 34.301651 -118.998611 280 7691ft 177kts
05-Oct-17 21:58 34.309881 -119.057273 282 7168ft 176kts
05-Oct-17 21:59 34.319633 -119.114686 280 6656ft 173kts
05-Oct-17 22:00 34.327374 -119.172181 280 6094ft 172kts
05-Oct-17 22:01 34.336795 -119.229054 281 5571ft 171kts
05-Oct-17 22:02 34.342215 -119.286299 267 4924ft 171kts
05-Oct-17 22:03 34.345336 -119.343805 280 4323ft 171kts
05-Oct-17 22:04 34.356757 -119.399161 285 3813ft 169kts
05-Oct-17 22:05 34.369587 -119.453677 285 3257ft 169kts
05-Oct-17 22:06 34.381337 -119.508599 282 2607ft 166kts
05-Oct-17 22:07 34.388817 -119.562428 277 2157ft 155kts
05-Oct-17 22:08 34.394363 -119.612041 278 1985ft 148kts
05-Oct-17 22:09 34.400510 -119.661143 280 1805ft 146kts
05-Oct-17 22:10 34.406310 -119.708005 272 1819ft 136kts
05-Oct-17 22:11 34.408557 -119.755187 273 1570ft 140kts
05-Oct-17 22:12 34.405976 -119.802482 262 1184ft 139kts
05-Oct-17 22:13 34.401651 -119.844943 265 1147ft 108kts
05-Oct-17 22:14 34.398464 -119.878095 268 1066ft 98kts
05-Oct-17 22:15 34.419411 -119.886818 359 798ft 84kts
05-Oct-17 22:16 34.427370 -119.865741 86 290ft 78kts
05-Oct-17 22:17 34.427720 -119.845140 88 13ft 29kts
05-Oct-17 22:18 34.427801 -119.840607 88 13ft 10kts
05-Oct-17 22:19 34.427877 -119.836659 88 13ft 14kts
05-Oct-17 22:20 34.429549 -119.835310 358 13ft 6kts
05-Oct-17 22:21 34.431894 -119.835379 356 13ft 5kts
05-Oct-17 22:22 34.432863 -119.836021 244 13ft 0kts
05-Oct-17 22:23 34.432862 -119.836024 244 13ft 0kts
05-Oct-17 22:24 34.432862 -119.836024 244 13ft 0kts
05-Oct-17 22:25 34.432862 -119.836024 244 13ft 0kts
05-Oct-17 22:26 34.432862 -119.836024 244 13ft 0kts

Navigation Log

Ident Type
Flight plan parsing failed, navigation log unavailable